sensor_id;sensor_type;location;lat;lon;timestamp;pressure;altitude;pressure_sealevel;temperature;humidity
68077;BME280;54866;53.458;14.540;2022-08-21T00:02:24;100655.03;;;17.68;80.47
68077;BME280;54866;53.458;14.540;2022-08-21T00:04:56;100656.48;;;17.65;80.67
68077;BME280;54866;53.458;14.540;2022-08-21T00:07:27;100659.52;;;17.64;80.93
68077;BME280;54866;53.458;14.540;2022-08-21T00:09:57;100656.92;;;17.62;81.02
68077;BME280;54866;53.458;14.540;2022-08-21T00:12:28;100655.33;;;17.58;81.21
68077;BME280;54866;53.458;14.540;2022-08-21T00:14:59;100661.98;;;17.55;81.39
68077;BME280;54866;53.458;14.540;2022-08-21T00:17:30;100663.13;;;17.52;81.29
68077;BME280;54866;53.458;14.540;2022-08-21T00:20:00;100665.46;;;17.48;81.20
68077;BME280;54866;53.458;14.540;2022-08-21T00:22:30;100654.48;;;17.46;81.23
68077;BME280;54866;53.458;14.540;2022-08-21T00:25:00;100646.90;;;17.44;81.30
68077;BME280;54866;53.458;14.540;2022-08-21T00:27:31;100646.73;;;17.41;81.38
68077;BME280;54866;53.458;14.540;2022-08-21T00:30:02;100645.42;;;17.38;81.51
68077;BME280;54866;53.458;14.540;2022-08-21T00:32:33;100644.71;;;17.36;81.60
68077;BME280;54866;53.458;14.540;2022-08-21T00:35:05;100646.20;;;17.33;81.66
68077;BME280;54866;53.458;14.540;2022-08-21T00:37:37;100648.98;;;17.30;81.62
68077;BME280;54866;53.458;14.540;2022-08-21T00:40:11;100651.10;;;17.28;81.76
68077;BME280;54866;53.458;14.540;2022-08-21T00:42:42;100655.34;;;17.27;81.76
68077;BME280;54866;53.458;14.540;2022-08-21T00:45:13;100655.67;;;17.24;82.04
68077;BME280;54866;53.458;14.540;2022-08-21T00:47:44;100652.40;;;17.21;82.01
68077;BME280;54866;53.458;14.540;2022-08-21T00:50:15;100653.41;;;17.20;82.07
68077;BME280;54866;53.458;14.540;2022-08-21T00:52:45;100656.82;;;17.16;82.29
68077;BME280;54866;53.458;14.540;2022-08-21T00:55:16;100658.27;;;17.16;82.19
68077;BME280;54866;53.458;14.540;2022-08-21T00:57:49;100659.77;;;17.17;82.28
68077;BME280;54866;53.458;14.540;2022-08-21T01:00:24;100656.58;;;17.17;82.33
68077;BME280;54866;53.458;14.540;2022-08-21T01:02:57;100657.23;;;17.15;82.47
68077;BME280;54866;53.458;14.540;2022-08-21T01:05:27;100650.86;;;17.15;82.52
68077;BME280;54866;53.458;14.540;2022-08-21T01:07:57;100647.73;;;17.15;82.55
68077;BME280;54866;53.458;14.540;2022-08-21T01:10:28;100650.64;;;17.14;82.46
68077;BME280;54866;53.458;14.540;2022-08-21T01:12:59;100655.61;;;17.12;82.44
68077;BME280;54866;53.458;14.540;2022-08-21T01:15:32;100657.34;;;17.11;82.69
68077;BME280;54866;53.458;14.540;2022-08-21T01:18:04;100658.61;;;17.11;82.54
68077;BME280;54866;53.458;14.540;2022-08-21T01:20:36;100658.91;;;17.10;82.45
68077;BME280;54866;53.458;14.540;2022-08-21T01:23:07;100660.67;;;17.10;82.49
68077;BME280;54866;53.458;14.540;2022-08-21T01:25:37;100659.11;;;17.10;82.47
68077;BME280;54866;53.458;14.540;2022-08-21T01:28:11;100657.48;;;17.10;82.25
68077;BME280;54866;53.458;14.540;2022-08-21T01:30:44;100654.67;;;17.10;82.28
68077;BME280;54866;53.458;14.540;2022-08-21T01:33:14;100656.38;;;17.09;82.33
68077;BME280;54866;53.458;14.540;2022-08-21T01:35:45;100657.00;;;17.08;82.25
68077;BME280;54866;53.458;14.540;2022-08-21T01:38:15;100656.94;;;17.07;82.26
68077;BME280;54866;53.458;14.540;2022-08-21T01:40:46;100656.54;;;17.07;82.23
68077;BME280;54866;53.458;14.540;2022-08-21T01:43:17;100654.88;;;17.06;82.16
68077;BME280;54866;53.458;14.540;2022-08-21T01:45:47;100650.20;;;17.05;82.26
68077;BME280;54866;53.458;14.540;2022-08-21T01:48:17;100650.13;;;17.04;82.08
68077;BME280;54866;53.458;14.540;2022-08-21T01:50:48;100645.84;;;17.02;82.22
68077;BME280;54866;53.458;14.540;2022-08-21T01:53:18;100646.89;;;17.01;82.06
68077;BME280;54866;53.458;14.540;2022-08-21T01:55:48;100644.95;;;16.98;82.28
68077;BME280;54866;53.458;14.540;2022-08-21T01:58:19;100648.25;;;16.97;82.38
68077;BME280;54866;53.458;14.540;2022-08-21T02:00:49;100645.17;;;16.94;82.32
68077;BME280;54866;53.458;14.540;2022-08-21T02:03:20;100644.07;;;16.91;82.42
68077;BME280;54866;53.458;14.540;2022-08-21T02:05:50;100640.42;;;16.90;82.71
68077;BME280;54866;53.458;14.540;2022-08-21T02:08:21;100637.63;;;16.90;82.49
68077;BME280;54866;53.458;14.540;2022-08-21T02:10:52;100635.49;;;16.88;82.51
68077;BME280;54866;53.458;14.540;2022-08-21T02:13:23;100635.15;;;16.86;82.51
68077;BME280;54866;53.458;14.540;2022-08-21T02:15:53;100634.85;;;16.84;82.69
68077;BME280;54866;53.458;14.540;2022-08-21T02:18:23;100637.11;;;16.82;82.79
68077;BME280;54866;53.458;14.540;2022-08-21T02:20:54;100632.98;;;16.81;82.89
68077;BME280;54866;53.458;14.540;2022-08-21T02:23:24;100637.88;;;16.80;83.06
68077;BME280;54866;53.458;14.540;2022-08-21T02:25:55;100639.52;;;16.78;82.97
68077;BME280;54866;53.458;14.540;2022-08-21T02:28:27;100640.21;;;16.77;83.11
68077;BME280;54866;53.458;14.540;2022-08-21T02:30:58;100643.04;;;16.74;82.94
68077;BME280;54866;53.458;14.540;2022-08-21T02:33:28;100650.64;;;16.73;83.17
68077;BME280;54866;53.458;14.540;2022-08-21T02:35:59;100649.94;;;16.71;83.24
68077;BME280;54866;53.458;14.540;2022-08-21T02:38:31;100647.27;;;16.69;83.32
68077;BME280;54866;53.458;14.540;2022-08-21T02:41:03;100648.15;;;16.67;83.46
68077;BME280;54866;53.458;14.540;2022-08-21T02:43:34;100639.90;;;16.64;83.48
68077;BME280;54866;53.458;14.540;2022-08-21T02:46:05;100639.07;;;16.60;83.61
68077;BME280;54866;53.458;14.540;2022-08-21T02:48:36;100631.79;;;16.56;83.80
68077;BME280;54866;53.458;14.540;2022-08-21T02:51:08;100626.12;;;16.53;83.94
68077;BME280;54866;53.458;14.540;2022-08-21T02:53:40;100625.14;;;16.50;84.02
68077;BME280;54866;53.458;14.540;2022-08-21T02:56:14;100623.75;;;16.48;84.08
68077;BME280;54866;53.458;14.540;2022-08-21T02:58:47;100627.98;;;16.45;84.02
68077;BME280;54866;53.458;14.540;2022-08-21T03:01:18;100626.35;;;16.41;84.12
68077;BME280;54866;53.458;14.540;2022-08-21T03:03:49;100626.97;;;16.38;84.31
68077;BME280;54866;53.458;14.540;2022-08-21T03:06:21;100626.60;;;16.35;84.33
68077;BME280;54866;53.458;14.540;2022-08-21T03:08:53;100629.46;;;16.31;84.54
68077;BME280;54866;53.458;14.540;2022-08-21T03:11:23;100626.14;;;16.29;84.73
68077;BME280;54866;53.458;14.540;2022-08-21T03:13:54;100627.84;;;16.28;84.78
68077;BME280;54866;53.458;14.540;2022-08-21T03:16:25;100627.70;;;16.26;84.80
68077;BME280;54866;53.458;14.540;2022-08-21T03:18:55;100627.31;;;16.24;84.87
68077;BME280;54866;53.458;14.540;2022-08-21T03:21:26;100624.48;;;16.23;85.03
68077;BME280;54866;53.458;14.540;2022-08-21T03:23:57;100623.00;;;16.20;85.18
68077;BME280;54866;53.458;14.540;2022-08-21T03:26:27;100622.69;;;16.16;85.27
68077;BME280;54866;53.458;14.540;2022-08-21T03:28:58;100623.23;;;16.14;85.57
68077;BME280;54866;53.458;14.540;2022-08-21T03:31:28;100627.77;;;16.13;85.64
68077;BME280;54866;53.458;14.540;2022-08-21T03:34:00;100626.40;;;16.11;85.84
68077;BME280;54866;53.458;14.540;2022-08-21T03:36:30;100628.56;;;16.11;85.93
68077;BME280;54866;53.458;14.540;2022-08-21T03:39:00;100634.45;;;16.09;85.98
68077;BME280;54866;53.458;14.540;2022-08-21T03:41:30;100635.02;;;16.07;86.15
68077;BME280;54866;53.458;14.540;2022-08-21T03:44:01;100635.70;;;16.06;86.52
68077;BME280;54866;53.458;14.540;2022-08-21T03:46:31;100637.63;;;16.04;86.36
68077;BME280;54866;53.458;14.540;2022-08-21T03:49:02;100637.80;;;16.04;86.50
68077;BME280;54866;53.458;14.540;2022-08-21T03:51:33;100635.92;;;16.03;86.53
68077;BME280;54866;53.458;14.540;2022-08-21T03:54:05;100636.38;;;16.01;86.63
68077;BME280;54866;53.458;14.540;2022-08-21T03:56:34;100637.52;;;16.02;86.58
68077;BME280;54866;53.458;14.540;2022-08-21T03:59:05;100640.61;;;16.01;86.72
68077;BME280;54866;53.458;14.540;2022-08-21T04:01:35;100640.93;;;15.98;86.85
68077;BME280;54866;53.458;14.540;2022-08-21T04:04:06;100642.76;;;15.95;86.88
68077;BME280;54866;53.458;14.540;2022-08-21T04:06:36;100635.98;;;15.94;87.04
68077;BME280;54866;53.458;14.540;2022-08-21T04:09:06;100633.98;;;15.92;87.25
68077;BME280;54866;53.458;14.540;2022-08-21T04:11:36;100633.27;;;15.91;87.45
68077;BME280;54866;53.458;14.540;2022-08-21T04:14:07;100637.45;;;15.90;87.50
68077;BME280;54866;53.458;14.540;2022-08-21T04:16:38;100641.59;;;15.89;87.49
68077;BME280;54866;53.458;14.540;2022-08-21T04:19:08;100638.72;;;15.89;87.62
68077;BME280;54866;53.458;14.540;2022-08-21T04:21:39;100639.89;;;15.90;87.56
68077;BME280;54866;53.458;14.540;2022-08-21T04:24:10;100640.52;;;15.91;87.82
68077;BME280;54866;53.458;14.540;2022-08-21T04:26:40;100640.59;;;15.90;87.63
68077;BME280;54866;53.458;14.540;2022-08-21T04:29:10;100642.92;;;15.90;87.91
68077;BME280;54866;53.458;14.540;2022-08-21T04:31:41;100646.79;;;15.90;87.92
68077;BME280;54866;53.458;14.540;2022-08-21T04:34:12;100642.05;;;15.90;87.83
68077;BME280;54866;53.458;14.540;2022-08-21T04:36:43;100642.41;;;15.90;87.89
68077;BME280;54866;53.458;14.540;2022-08-21T04:39:13;100643.20;;;15.91;87.90
68077;BME280;54866;53.458;14.540;2022-08-21T04:41:43;100642.06;;;15.91;87.83
68077;BME280;54866;53.458;14.540;2022-08-21T04:44:14;100641.38;;;15.93;87.88
68077;BME280;54866;53.458;14.540;2022-08-21T04:46:46;100645.02;;;15.95;87.91
68077;BME280;54866;53.458;14.540;2022-08-21T04:49:16;100646.51;;;15.93;87.98
68077;BME280;54866;53.458;14.540;2022-08-21T04:51:47;100645.16;;;15.92;88.14
68077;BME280;54866;53.458;14.540;2022-08-21T04:54:20;100645.70;;;15.92;88.11
68077;BME280;54866;53.458;14.540;2022-08-21T04:56:54;100645.20;;;15.92;88.22
68077;BME280;54866;53.458;14.540;2022-08-21T04:59:28;100651.80;;;15.93;88.24
68077;BME280;54866;53.458;14.540;2022-08-21T05:02:02;100652.20;;;15.94;88.39
68077;BME280;54866;53.458;14.540;2022-08-21T05:04:35;100654.17;;;15.95;88.34
68077;BME280;54866;53.458;14.540;2022-08-21T05:07:10;100652.55;;;15.97;88.25
68077;BME280;54866;53.458;14.540;2022-08-21T05:09:42;100653.00;;;16.00;88.28
68077;BME280;54866;53.458;14.540;2022-08-21T05:12:14;100655.08;;;16.02;88.34
68077;BME280;54866;53.458;14.540;2022-08-21T05:14:44;100653.31;;;16.03;88.30
68077;BME280;54866;53.458;14.540;2022-08-21T05:17:16;100656.94;;;16.06;88.23
68077;BME280;54866;53.458;14.540;2022-08-21T05:19:46;100654.29;;;16.09;88.26
68077;BME280;54866;53.458;14.540;2022-08-21T05:22:22;100654.86;;;16.12;88.15
68077;BME280;54866;53.458;14.540;2022-08-21T05:24:53;100653.34;;;16.13;88.21
68077;BME280;54866;53.458;14.540;2022-08-21T05:27:23;100653.20;;;16.15;88.13
68077;BME280;54866;53.458;14.540;2022-08-21T05:29:54;100656.98;;;16.16;88.24
68077;BME280;54866;53.458;14.540;2022-08-21T05:32:25;100651.92;;;16.19;88.26
68077;BME280;54866;53.458;14.540;2022-08-21T05:34:56;100648.77;;;16.21;88.42
68077;BME280;54866;53.458;14.540;2022-08-21T05:37:26;100649.23;;;16.25;88.40
68077;BME280;54866;53.458;14.540;2022-08-21T05:39:56;100650.27;;;16.29;88.44
68077;BME280;54866;53.458;14.540;2022-08-21T05:42:26;100653.50;;;16.36;88.45
68077;BME280;54866;53.458;14.540;2022-08-21T05:44:57;100651.75;;;16.41;88.33
68077;BME280;54866;53.458;14.540;2022-08-21T05:47:27;100648.02;;;16.43;88.22
68077;BME280;54866;53.458;14.540;2022-08-21T05:49:57;100652.41;;;16.46;88.34
68077;BME280;54866;53.458;14.540;2022-08-21T05:52:27;100652.77;;;16.50;88.19
68077;BME280;54866;53.458;14.540;2022-08-21T05:54:58;100651.80;;;16.54;88.26
68077;BME280;54866;53.458;14.540;2022-08-21T05:57:28;100651.88;;;16.60;88.31
68077;BME280;54866;53.458;14.540;2022-08-21T05:59:58;100654.50;;;16.66;88.36
68077;BME280;54866;53.458;14.540;2022-08-21T06:02:29;100654.95;;;16.72;88.38
68077;BME280;54866;53.458;14.540;2022-08-21T06:04:59;100653.52;;;16.78;88.26
68077;BME280;54866;53.458;14.540;2022-08-21T06:07:30;100655.54;;;16.86;88.00
68077;BME280;54866;53.458;14.540;2022-08-21T06:10:00;100654.45;;;16.94;87.75
68077;BME280;54866;53.458;14.540;2022-08-21T06:12:31;100655.93;;;17.00;87.62
68077;BME280;54866;53.458;14.540;2022-08-21T06:15:02;100660.80;;;17.04;87.66
68077;BME280;54866;53.458;14.540;2022-08-21T06:17:33;100664.35;;;17.09;87.35
68077;BME280;54866;53.458;14.540;2022-08-21T06:20:04;100666.79;;;17.14;87.42
68077;BME280;54866;53.458;14.540;2022-08-21T06:22:35;100667.52;;;17.21;87.34
68077;BME280;54866;53.458;14.540;2022-08-21T06:25:07;100668.59;;;17.28;87.25
68077;BME280;54866;53.458;14.540;2022-08-21T06:27:38;100668.58;;;17.34;87.28
68077;BME280;54866;53.458;14.540;2022-08-21T06:30:11;100670.77;;;17.41;87.07
68077;BME280;54866;53.458;14.540;2022-08-21T06:32:41;100672.14;;;17.48;87.03
68077;BME280;54866;53.458;14.540;2022-08-21T06:35:11;100669.86;;;17.56;86.83
68077;BME280;54866;53.458;14.540;2022-08-21T06:37:42;100667.25;;;17.63;86.71
68077;BME280;54866;53.458;14.540;2022-08-21T06:40:13;100663.75;;;17.71;86.57
68077;BME280;54866;53.458;14.540;2022-08-21T06:42:43;100666.05;;;17.81;86.47
68077;BME280;54866;53.458;14.540;2022-08-21T06:45:14;100670.66;;;17.90;86.24
68077;BME280;54866;53.458;14.540;2022-08-21T06:47:44;100672.29;;;17.99;86.13
68077;BME280;54866;53.458;14.540;2022-08-21T06:50:14;100673.16;;;18.09;85.80
68077;BME280;54866;53.458;14.540;2022-08-21T06:52:45;100672.73;;;18.18;85.70
68077;BME280;54866;53.458;14.540;2022-08-21T06:55:15;100676.58;;;18.24;85.19
68077;BME280;54866;53.458;14.540;2022-08-21T06:57:46;100673.15;;;18.33;84.90
68077;BME280;54866;53.458;14.540;2022-08-21T07:00:17;100678.33;;;18.39;84.54
68077;BME280;54866;53.458;14.540;2022-08-21T07:02:47;100679.84;;;18.48;84.50
68077;BME280;54866;53.458;14.540;2022-08-21T07:05:18;100676.36;;;18.55;84.25
68077;BME280;54866;53.458;14.540;2022-08-21T07:07:48;100675.49;;;18.60;84.12
68077;BME280;54866;53.458;14.540;2022-08-21T07:10:20;100673.38;;;18.67;83.88
68077;BME280;54866;53.458;14.540;2022-08-21T07:12:50;100676.14;;;18.73;83.81
68077;BME280;54866;53.458;14.540;2022-08-21T07:15:21;100674.91;;;18.81;83.63
68077;BME280;54866;53.458;14.540;2022-08-21T07:17:52;100676.31;;;18.87;83.31
68077;BME280;54866;53.458;14.540;2022-08-21T07:20:22;100675.10;;;18.92;83.22
68077;BME280;54866;53.458;14.540;2022-08-21T07:22:53;100674.95;;;18.96;82.96
68077;BME280;54866;53.458;14.540;2022-08-21T07:25:23;100673.23;;;19.02;82.71
68077;BME280;54866;53.458;14.540;2022-08-21T07:27:54;100671.38;;;19.06;82.63
68077;BME280;54866;53.458;14.540;2022-08-21T07:30:25;100670.52;;;19.13;82.57
68077;BME280;54866;53.458;14.540;2022-08-21T07:32:56;100670.89;;;19.21;82.37
68077;BME280;54866;53.458;14.540;2022-08-21T07:35:27;100674.30;;;19.30;82.03
68077;BME280;54866;53.458;14.540;2022-08-21T07:37:59;100673.99;;;19.36;81.80
68077;BME280;54866;53.458;14.540;2022-08-21T07:40:30;100674.84;;;19.44;81.65
68077;BME280;54866;53.458;14.540;2022-08-21T07:43:00;100677.19;;;19.47;81.00
68077;BME280;54866;53.458;14.540;2022-08-21T07:45:31;100677.98;;;19.50;81.23
68077;BME280;54866;53.458;14.540;2022-08-21T07:48:01;100681.27;;;19.58;81.09
68077;BME280;54866;53.458;14.540;2022-08-21T07:50:32;100677.86;;;19.67;80.78
68077;BME280;54866;53.458;14.540;2022-08-21T07:53:02;100678.27;;;19.74;80.55
68077;BME280;54866;53.458;14.540;2022-08-21T07:55:33;100675.32;;;19.84;80.24
68077;BME280;54866;53.458;14.540;2022-08-21T07:58:04;100675.36;;;19.93;79.90
68077;BME280;54866;53.458;14.540;2022-08-21T08:00:35;100675.42;;;20.00;79.08
68077;BME280;54866;53.458;14.540;2022-08-21T08:03:05;100676.92;;;20.04;78.92
68077;BME280;54866;53.458;14.540;2022-08-21T08:05:35;100671.85;;;20.12;78.90
68077;BME280;54866;53.458;14.540;2022-08-21T08:08:08;100675.07;;;20.19;78.50
68077;BME280;54866;53.458;14.540;2022-08-21T08:10:39;100678.89;;;20.28;78.24
68077;BME280;54866;53.458;14.540;2022-08-21T08:13:09;100675.24;;;20.30;77.86
68077;BME280;54866;53.458;14.540;2022-08-21T08:15:40;100673.54;;;20.30;77.69
68077;BME280;54866;53.458;14.540;2022-08-21T08:18:10;100676.33;;;20.30;77.21
68077;BME280;54866;53.458;14.540;2022-08-21T08:20:40;100681.18;;;20.33;77.31
68077;BME280;54866;53.458;14.540;2022-08-21T08:23:13;100678.33;;;20.35;77.22
68077;BME280;54866;53.458;14.540;2022-08-21T08:25:44;100682.34;;;20.41;76.98
68077;BME280;54866;53.458;14.540;2022-08-21T08:28:16;100684.20;;;20.46;76.95
68077;BME280;54866;53.458;14.540;2022-08-21T08:30:46;100682.70;;;20.56;76.81
68077;BME280;54866;53.458;14.540;2022-08-21T08:33:18;100689.18;;;20.70;76.75
68077;BME280;54866;53.458;14.540;2022-08-21T08:35:50;100688.64;;;20.85;76.15
68077;BME280;54866;53.458;14.540;2022-08-21T08:38:22;100691.04;;;20.99;75.86
68077;BME280;54866;53.458;14.540;2022-08-21T08:40:58;100688.09;;;21.14;75.31
68077;BME280;54866;53.458;14.540;2022-08-21T08:43:31;100688.43;;;21.38;74.56
68077;BME280;54866;53.458;14.540;2022-08-21T08:46:05;100688.11;;;21.53;73.29
68077;BME280;54866;53.458;14.540;2022-08-21T08:48:44;100685.90;;;21.65;72.81
68077;BME280;54866;53.458;14.540;2022-08-21T08:51:21;100680.43;;;21.77;72.83
68077;BME280;54866;53.458;14.540;2022-08-21T08:53:55;100683.50;;;21.97;72.67
68077;BME280;54866;53.458;14.540;2022-08-21T08:56:32;100681.89;;;22.08;71.21
68077;BME280;54866;53.458;14.540;2022-08-21T08:59:09;100684.06;;;22.18;70.46
68077;BME280;54866;53.458;14.540;2022-08-21T09:01:44;100678.05;;;22.26;69.41
68077;BME280;54866;53.458;14.540;2022-08-21T09:04:15;100678.48;;;22.40;69.54
68077;BME280;54866;53.458;14.540;2022-08-21T09:06:58;100675.34;;;22.71;69.61
68077;BME280;54866;53.458;14.540;2022-08-21T09:09:41;100680.16;;;23.14;68.48
68077;BME280;54866;53.458;14.540;2022-08-21T09:12:24;100675.76;;;23.83;66.49
68077;BME280;54866;53.458;14.540;2022-08-21T09:15:06;100677.36;;;24.92;64.38
68077;BME280;54866;53.458;14.540;2022-08-21T09:18:03;100674.11;;;26.21;60.99
68077;BME280;54866;53.458;14.540;2022-08-21T09:20:47;100670.45;;;27.43;56.92
68077;BME280;54866;53.458;14.540;2022-08-21T09:23:28;100666.52;;;28.15;54.61
68077;BME280;54866;53.458;14.540;2022-08-21T09:26:07;100671.94;;;28.48;52.37
68077;BME280;54866;53.458;14.540;2022-08-21T09:28:38;100672.86;;;28.41;51.64
68077;BME280;54866;53.458;14.540;2022-08-21T09:31:14;100674.29;;;28.17;51.94
68077;BME280;54866;53.458;14.540;2022-08-21T09:33:45;100669.98;;;27.73;51.45
68077;BME280;54866;53.458;14.540;2022-08-21T09:36:25;100670.95;;;27.22;52.60
68077;BME280;54866;53.458;14.540;2022-08-21T09:38:55;100674.23;;;26.65;53.03
68077;BME280;54866;53.458;14.540;2022-08-21T09:41:31;100677.30;;;26.14;54.43
68077;BME280;54866;53.458;14.540;2022-08-21T09:44:05;100680.84;;;25.74;55.48
68077;BME280;54866;53.458;14.540;2022-08-21T09:46:35;100679.73;;;25.57;56.66
68077;BME280;54866;53.458;14.540;2022-08-21T09:49:06;100681.13;;;25.54;56.41
68077;BME280;54866;53.458;14.540;2022-08-21T09:51:38;100678.91;;;25.54;56.25
68077;BME280;54866;53.458;14.540;2022-08-21T09:54:20;100675.38;;;25.52;55.99
68077;BME280;54866;53.458;14.540;2022-08-21T09:56:57;100681.83;;;25.37;55.33
68077;BME280;54866;53.458;14.540;2022-08-21T09:59:42;100683.06;;;25.19;56.44
68077;BME280;54866;53.458;14.540;2022-08-21T10:02:31;100682.48;;;25.09;56.47
68077;BME280;54866;53.458;14.540;2022-08-21T10:05:04;100685.28;;;25.15;57.00
68077;BME280;54866;53.458;14.540;2022-08-21T10:07:38;100685.75;;;25.22;55.81
68077;BME280;54866;53.458;14.540;2022-08-21T10:10:14;100685.41;;;25.17;55.83
68077;BME280;54866;53.458;14.540;2022-08-21T10:12:56;100688.20;;;25.12;56.51
68077;BME280;54866;53.458;14.540;2022-08-21T10:15:40;100684.50;;;25.06;56.84
68077;BME280;54866;53.458;14.540;2022-08-21T10:18:24;100685.48;;;25.01;56.76
68077;BME280;54866;53.458;14.540;2022-08-21T10:21:01;100688.29;;;24.94;57.06
68077;BME280;54866;53.458;14.540;2022-08-21T10:23:41;100683.14;;;24.97;56.97
68077;BME280;54866;53.458;14.540;2022-08-21T10:26:26;100684.33;;;25.31;56.52
68077;BME280;54866;53.458;14.540;2022-08-21T10:29:05;100681.67;;;25.74;54.43
68077;BME280;54866;53.458;14.540;2022-08-21T10:31:45;100679.57;;;26.17;52.73
68077;BME280;54866;53.458;14.540;2022-08-21T10:34:28;100684.80;;;26.45;50.83
68077;BME280;54866;53.458;14.540;2022-08-21T10:37:17;100685.63;;;26.35;49.14
68077;BME280;54866;53.458;14.540;2022-08-21T10:39:59;100683.73;;;26.17;49.42
68077;BME280;54866;53.458;14.540;2022-08-21T10:42:38;100686.44;;;26.03;50.79
68077;BME280;54866;53.458;14.540;2022-08-21T10:45:19;100690.38;;;25.85;51.53
68077;BME280;54866;53.458;14.540;2022-08-21T10:47:57;100691.89;;;25.62;51.43
68077;BME280;54866;53.458;14.540;2022-08-21T10:50:34;100693.45;;;25.37;51.48
68077;BME280;54866;53.458;14.540;2022-08-21T10:53:39;100698.76;;;25.17;51.82
68077;BME280;54866;53.458;14.540;2022-08-21T10:56:17;100700.59;;;24.92;52.13
68077;BME280;54866;53.458;14.540;2022-08-21T10:59:04;100701.38;;;24.89;52.03
68077;BME280;54866;53.458;14.540;2022-08-21T11:01:42;100698.30;;;24.88;51.59
68077;BME280;54866;53.458;14.540;2022-08-21T11:04:19;100699.26;;;24.89;51.90
68077;BME280;54866;53.458;14.540;2022-08-21T11:06:56;100698.37;;;25.02;51.45
68077;BME280;54866;53.458;14.540;2022-08-21T11:09:29;100697.59;;;25.10;50.54
68077;BME280;54866;53.458;14.540;2022-08-21T11:12:03;100699.20;;;25.10;50.01
68077;BME280;54866;53.458;14.540;2022-08-21T11:14:41;100702.14;;;24.99;49.68
68077;BME280;54866;53.458;14.540;2022-08-21T11:17:20;100702.73;;;24.91;49.77
68077;BME280;54866;53.458;14.540;2022-08-21T11:19:57;100702.19;;;24.93;48.79
68077;BME280;54866;53.458;14.540;2022-08-21T11:22:35;100703.48;;;24.95;48.27
68077;BME280;54866;53.458;14.540;2022-08-21T11:25:15;100708.19;;;24.78;47.50
68077;BME280;54866;53.458;14.540;2022-08-21T11:27:52;100705.48;;;24.77;48.23
68077;BME280;54866;53.458;14.540;2022-08-21T11:30:26;100701.53;;;24.82;49.32
68077;BME280;54866;53.458;14.540;2022-08-21T11:33:08;100702.31;;;24.83;49.70
68077;BME280;54866;53.458;14.540;2022-08-21T11:35:47;100703.65;;;24.83;50.08
68077;BME280;54866;53.458;14.540;2022-08-21T11:38:36;100704.39;;;24.86;50.24
68077;BME280;54866;53.458;14.540;2022-08-21T11:41:19;100702.73;;;24.93;49.79
68077;BME280;54866;53.458;14.540;2022-08-21T11:43:51;100699.62;;;25.04;49.39
68077;BME280;54866;53.458;14.540;2022-08-21T11:46:28;100698.38;;;25.08;49.33
68077;BME280;54866;53.458;14.540;2022-08-21T11:49:14;100698.11;;;25.22;49.67
68077;BME280;54866;53.458;14.540;2022-08-21T11:51:53;100693.52;;;25.30;49.46
68077;BME280;54866;53.458;14.540;2022-08-21T11:54:29;100700.09;;;25.31;49.19
68077;BME280;54866;53.458;14.540;2022-08-21T11:57:04;100700.23;;;25.23;49.11
68077;BME280;54866;53.458;14.540;2022-08-21T11:59:39;100697.65;;;25.12;49.66
68077;BME280;54866;53.458;14.540;2022-08-21T12:02:20;100695.67;;;25.09;49.95
68077;BME280;54866;53.458;14.540;2022-08-21T12:04:54;100701.45;;;24.94;50.28
68077;BME280;54866;53.458;14.540;2022-08-21T12:07:35;100703.69;;;24.82;50.75
68077;BME280;54866;53.458;14.540;2022-08-21T12:10:07;100704.94;;;24.68;51.12
68077;BME280;54866;53.458;14.540;2022-08-21T12:12:40;100703.99;;;24.58;51.47
68077;BME280;54866;53.458;14.540;2022-08-21T12:15:28;100702.77;;;24.46;51.57
68077;BME280;54866;53.458;14.540;2022-08-21T12:18:03;100707.65;;;24.32;52.28
68077;BME280;54866;53.458;14.540;2022-08-21T12:20:43;100702.23;;;24.19;52.27
68077;BME280;54866;53.458;14.540;2022-08-21T12:23:27;100701.77;;;24.09;52.63
68077;BME280;54866;53.458;14.540;2022-08-21T12:26:13;100702.81;;;24.02;53.02
68077;BME280;54866;53.458;14.540;2022-08-21T12:28:46;100708.88;;;23.95;53.48
68077;BME280;54866;53.458;14.540;2022-08-21T12:31:25;100703.69;;;23.99;53.27
68077;BME280;54866;53.458;14.540;2022-08-21T12:34:00;100703.70;;;24.13;53.21
68077;BME280;54866;53.458;14.540;2022-08-21T12:36:42;100703.58;;;24.32;53.03
68077;BME280;54866;53.458;14.540;2022-08-21T12:39:20;100703.50;;;24.55;51.95
68077;BME280;54866;53.458;14.540;2022-08-21T12:41:52;100704.20;;;24.77;51.39
68077;BME280;54866;53.458;14.540;2022-08-21T12:44:31;100708.55;;;24.94;51.50
68077;BME280;54866;53.458;14.540;2022-08-21T12:47:11;100702.77;;;25.02;50.66
68077;BME280;54866;53.458;14.540;2022-08-21T12:49:51;100703.21;;;24.98;50.03
68077;BME280;54866;53.458;14.540;2022-08-21T12:52:24;100699.29;;;25.08;50.20
68077;BME280;54866;53.458;14.540;2022-08-21T12:54:56;100701.52;;;25.13;49.65
68077;BME280;54866;53.458;14.540;2022-08-21T12:57:27;100700.77;;;25.13;49.21
68077;BME280;54866;53.458;14.540;2022-08-21T13:00:02;100703.64;;;25.12;49.82
68077;BME280;54866;53.458;14.540;2022-08-21T13:02:41;100701.29;;;25.10;50.04
68077;BME280;54866;53.458;14.540;2022-08-21T13:05:15;100706.52;;;24.92;49.53
68077;BME280;54866;53.458;14.540;2022-08-21T13:07:48;100699.70;;;24.65;50.12
68077;BME280;54866;53.458;14.540;2022-08-21T13:10:21;100695.67;;;24.40;50.21
68077;BME280;54866;53.458;14.540;2022-08-21T13:12:55;100696.29;;;24.23;51.50